< < Back
Terminal Aerodrome Forecast


Current Version              Previous Versions:   1  2  3  4  5  6  7  8  9  

Terminal Aerodrome Forecast

585
FTUS42 KFFC 071736
TAFFTY
TAF
KFTY 071736Z 0718/0818 34010G17KT P6SM FEW250
     FM072300 29004KT P6SM SCT250
     FM080800 25006KT P6SM SCT030 BKN200
     FM081200 23006KT P6SM BKN025
     FM081600 26011G18KT P6SM BKN025=

Latest METAR

608
SAUS70 KWBC 080200 RRF
MTRFTY
METAR KFTY 080153Z 00000KT 10SM CLR 06/M03 A3000 RMK AO2 SLP160
T00561028


USA.gov is the U.S. government's official web portal to all federal, state and local government web resources and services.